Time;durP1;ratioP1;P1;durP2;ratioP2;P2;SDS_P1;SDS_P2;PMS_P1;PMS_P2;Temp;Humidity;BMP_temperature;BMP_pressure;BME280_temperature;BME280_humidity;BME280_pressure;Samples;Min_cycle;Max_cycle;Signal;HPM_P1;HPM_P2
2022/09/23 00:02:20;;;;;;;5.80;4.23;;;8.70;99.90;;;;;;5050020;28;20219;-78
2022/09/23 00:04:46;;;;;;;7.23;4.20;;;8.70;99.90;;;;;;5047126;28;20174;-78
2022/09/23 00:07:11;;;;;;;5.97;4.33;;;8.70;99.90;;;;;;5026287;28;20427;-78
2022/09/23 00:09:37;;;;;;;8.10;5.03;;;8.80;99.90;;;;;;5036972;28;20174;-78
2022/09/23 00:12:02;;;;;;;5.87;4.27;;;8.80;99.90;;;;;;5037293;28;20279;-78
2022/09/23 00:14:28;;;;;;;6.20;4.30;;;8.80;99.90;;;;;;5039837;28;20180;-79
2022/09/23 00:16:53;;;;;;;5.30;4.47;;;8.80;99.90;;;;;;5036296;28;20649;-79
2022/09/23 00:19:19;;;;;;;6.20;4.10;;;8.80;99.90;;;;;;5035965;28;20324;-79
2022/09/23 00:21:44;;;;;;;5.90;4.27;;;8.80;99.90;;;;;;5035542;28;20295;-79
2022/09/23 00:24:10;;;;;;;5.73;4.13;;;8.80;99.90;;;;;;5036353;28;20179;-79
2022/09/23 00:26:35;;;;;;;7.30;4.60;;;8.80;99.90;;;;;;5036194;28;20586;-79
2022/09/23 00:29:01;;;;;;;6.93;5.07;;;8.80;99.90;;;;;;5036690;28;20261;-78
2022/09/23 00:31:27;;;;;;;5.77;5.10;;;8.70;99.90;;;;;;5036861;28;20243;-78
2022/09/23 00:33:58;;;;;;;6.90;4.57;;;8.70;99.90;;;;;;5036460;28;20170;-78
2022/09/23 00:36:25;;;;;;;4.60;4.20;;;8.70;99.90;;;;;;5035259;28;20171;-78
2022/09/23 00:38:50;;;;;;;5.27;4.60;;;8.60;99.90;;;;;;5020453;28;20510;-79
2022/09/23 00:41:16;;;;;;;6.60;4.50;;;8.60;99.90;;;;;;5042937;28;20466;-78
2022/09/23 00:43:47;;;;;;;3.60;3.30;;;8.60;99.90;;;;;;5039566;28;20290;-78
2022/09/23 00:46:27;;;;;;;5.70;3.90;;;8.50;99.90;;;;;;5036979;28;20769;-78
2022/09/23 00:49:04;;;;;;;6.17;4.20;;;8.50;99.90;;;;;;5036613;28;20475;-78
2022/09/23 00:51:37;;;;;;;4.27;3.97;;;8.40;99.90;;;;;;5037049;28;20444;-78
2022/09/23 00:54:05;;;;;;;4.67;4.07;;;8.40;99.90;;;;;;5040541;28;20501;-78
2022/09/23 00:56:32;;;;;;;4.60;3.40;;;8.30;99.90;;;;;;5035664;28;20406;-78
2022/09/23 00:58:59;;;;;;;4.50;3.57;;;8.30;99.90;;;;;;5035218;28;20506;-78
2022/09/23 01:01:25;;;;;;;4.20;3.80;;;8.20;99.90;;;;;;5034427;28;20498;-78
2022/09/23 01:03:53;;;;;;;6.40;4.40;;;8.20;99.90;;;;;;5034861;28;20414;-78
2022/09/23 01:06:19;;;;;;;8.53;4.20;;;8.20;99.90;;;;;;5035109;28;20617;-78
2022/09/23 01:08:46;;;;;;;5.50;4.50;;;8.10;99.90;;;;;;5036819;28;20501;-78
2022/09/23 01:11:39;;;;;;;4.40;3.73;;;8.10;99.90;;;;;;5043055;28;20498;-78
2022/09/23 01:14:30;;;;;;;5.00;3.90;;;8.10;99.90;;;;;;5042203;28;20402;-78
2022/09/23 01:17:10;;;;;;;4.80;3.70;;;8.00;99.90;;;;;;5042210;28;20400;-78
2022/09/23 01:19:35;;;;;;;7.27;4.20;;;7.90;99.90;;;;;;5042968;28;20406;-77
2022/09/23 01:22:43;;;;;;;5.33;3.90;;;7.90;99.90;;;;;;5042059;28;20550;-78
2022/09/23 01:25:33;;;;;;;8.23;4.37;;;7.90;99.90;;;;;;5021018;28;20183;-78
2022/09/23 01:28:20;;;;;;;4.43;3.57;;;7.90;99.90;;;;;;5042391;28;20422;-77
2022/09/23 01:30:51;;;;;;;6.13;4.27;;;7.80;99.90;;;;;;5042555;28;20523;-78
2022/09/23 01:33:43;;;;;;;4.37;3.40;;;7.80;99.90;;;;;;5036823;28;20450;-78
2022/09/23 01:36:32;;;;;;;5.13;4.63;;;7.70;99.90;;;;;;5024454;28;20430;-78
2022/09/23 01:39:06;;;;;;;5.33;4.60;;;7.70;99.90;;;;;;5035783;28;20419;-78
2022/09/23 01:41:38;;;;;;;10.17;5.33;;;7.70;99.90;;;;;;5033920;28;20454;-78
2022/09/23 01:44:22;;;;;;;7.60;5.30;;;7.70;99.90;;;;;;5034847;28;20403;-78
2022/09/23 01:46:57;;;;;;;4.83;4.20;;;7.60;99.90;;;;;;5033486;28;20455;-78
2022/09/23 01:49:42;;;;;;;8.13;4.27;;;7.60;99.90;;;;;;5033475;28;20492;-78
2022/09/23 01:52:08;;;;;;;5.43;4.07;;;7.50;99.90;;;;;;5033899;28;20862;-78
2022/09/23 01:54:38;;;;;;;5.73;4.27;;;7.50;99.90;;;;;;5033667;28;20461;-78
2022/09/23 01:57:17;;;;;;;4.40;4.00;;;7.50;99.90;;;;;;5033465;28;20416;-78
2022/09/23 01:59:52;;;;;;;6.30;4.83;;;7.50;99.90;;;;;;5033220;28;20406;-78
2022/09/23 02:02:27;;;;;;;6.20;4.97;;;7.50;99.90;;;;;;5033124;28;20460;-78
2022/09/23 02:05:04;;;;;;;6.03;4.40;;;7.50;99.90;;;;;;5033322;28;20410;-78
2022/09/23 02:07:36;;;;;;;4.83;4.43;;;7.50;99.90;;;;;;5034078;28;20431;-78
2022/09/23 02:10:19;;;;;;;5.10;3.83;;;7.50;99.90;;;;;;5032304;28;20766;-77
2022/09/23 02:12:48;;;;;;;5.03;3.87;;;7.50;99.90;;;;;;5031637;28;20473;-77
2022/09/23 02:15:22;;;;;;;4.60;4.00;;;7.50;99.90;;;;;;5031627;28;20406;-77
2022/09/23 02:18:02;;;;;;;8.03;4.90;;;7.50;99.90;;;;;;5032033;28;20412;-77
2022/09/23 02:20:31;;;;;;;5.57;4.63;;;7.40;99.90;;;;;;5031523;28;20578;-77
2022/09/23 02:23:06;;;;;;;6.53;4.83;;;7.40;99.90;;;;;;5031428;28;20490;-77
2022/09/23 02:25:47;;;;;;;5.60;4.40;;;7.40;99.90;;;;;;5033088;28;20410;-77
2022/09/23 02:28:26;;;;;;;5.13;3.87;;;7.30;99.90;;;;;;5037936;28;20831;-77
2022/09/23 02:31:06;;;;;;;5.67;4.10;;;7.40;99.90;;;;;;5035610;28;20404;-76
2022/09/23 02:33:42;;;;;;;3.77;3.23;;;7.40;99.90;;;;;;5036948;28;20410;-77
2022/09/23 02:36:30;;;;;;;6.93;4.83;;;7.30;99.90;;;;;;5036806;28;20414;-77
2022/09/23 02:39:00;;;;;;;6.87;4.67;;;7.40;99.90;;;;;;5035929;28;20774;-77
2022/09/23 02:41:43;;;;;;;6.97;5.83;;;7.50;99.90;;;;;;5035715;28;20982;-77
2022/09/23 02:44:15;;;;;;;5.20;4.70;;;7.50;99.90;;;;;;5035566;28;20427;-78
2022/09/23 02:46:44;;;;;;;6.07;4.37;;;7.40;99.90;;;;;;5017559;28;20419;-77
2022/09/23 02:49:26;;;;;;;6.67;4.87;;;7.40;99.90;;;;;;5035483;28;20406;-77
2022/09/23 02:51:53;;;;;;;7.27;5.37;;;7.40;99.90;;;;;;5035237;28;20429;-77
2022/09/23 02:54:21;;;;;;;4.90;4.37;;;7.40;99.90;;;;;;5035119;28;20916;-77
2022/09/23 02:56:48;;;;;;;7.53;5.70;;;7.40;99.90;;;;;;5035142;28;20410;-78
2022/09/23 02:59:18;;;;;;;6.73;5.27;;;7.40;99.90;;;;;;5017288;28;20464;-79
2022/09/23 03:02:12;;;;;;;7.00;4.80;;;7.40;99.90;;;;;;5037933;28;20461;-78
2022/09/23 03:04:49;;;;;;;7.03;5.30;;;7.40;99.90;;;;;;5019151;28;20414;-78
2022/09/23 03:07:52;;;;;;;6.07;5.07;;;7.30;99.90;;;;;;5038188;28;20406;-77
2022/09/23 03:10:48;;;;;;;7.23;4.77;;;7.30;99.90;;;;;;4969322;28;20414;-78
2022/09/23 03:13:45;;;;;;;11.93;6.67;;;7.30;99.90;;;;;;5031340;28;20497;-77
2022/09/23 03:16:51;;;;;;;6.50;4.43;;;7.20;99.90;;;;;;5042883;28;20410;-77
2022/09/23 03:19:20;;;;;;;6.93;4.97;;;7.30;99.90;;;;;;5034742;28;20472;-77
2022/09/23 03:21:59;;;;;;;6.30;5.13;;;7.30;99.90;;;;;;5034779;28;20865;-78
2022/09/23 03:24:30;;;;;;;6.17;5.07;;;7.30;99.90;;;;;;5035338;28;20404;-78
2022/09/23 03:26:58;;;;;;;6.23;5.53;;;7.20;99.90;;;;;;5034907;28;20395;-78
2022/09/23 03:29:24;;;;;;;5.03;4.53;;;7.20;99.90;;;;;;5034825;28;20415;-78
2022/09/23 03:31:51;;;;;;;5.40;4.47;;;7.30;99.90;;;;;;5034673;28;20991;-77
2022/09/23 03:34:24;;;;;;;6.30;5.13;;;7.20;99.90;;;;;;5034944;28;20478;-79
2022/09/23 03:37:09;;;;;;;6.30;5.23;;;7.20;99.90;;;;;;5034878;28;20429;-78
2022/09/23 03:39:41;;;;;;;4.67;4.20;;;7.20;99.90;;;;;;5034667;28;20413;-77
2022/09/23 03:42:18;;;;;;;8.20;5.40;;;7.20;99.90;;;;;;5033880;28;20496;-77
2022/09/23 03:44:46;;;;;;;7.27;5.30;;;7.20;99.90;;;;;;5034657;28;20402;-77
2022/09/23 03:47:13;;;;;;;6.10;5.50;;;7.20;99.90;;;;;;5034410;28;20456;-78
2022/09/23 03:49:46;;;;;;;6.67;5.67;;;7.10;99.90;;;;;;5034588;28;20460;-77
2022/09/23 03:52:12;;;;;;;6.20;5.00;;;7.10;99.90;;;;;;5034376;28;20928;-77
2022/09/23 03:54:38;;;;;;;6.87;5.33;;;7.10;99.90;;;;;;5034248;28;20412;-77
2022/09/23 03:57:03;;;;;;;5.00;4.40;;;7.10;99.90;;;;;;5034357;28;20457;-78
2022/09/23 03:59:29;;;;;;;5.63;4.20;;;7.00;99.90;;;;;;5034429;28;20168;-77
2022/09/23 04:01:56;;;;;;;7.93;5.30;;;7.10;99.90;;;;;;5017224;28;20208;-79
2022/09/23 04:04:21;;;;;;;7.50;5.40;;;7.00;99.90;;;;;;5038362;28;20243;-78
2022/09/23 04:06:47;;;;;;;6.83;6.00;;;7.00;99.90;;;;;;5036252;28;20454;-79
2022/09/23 04:09:12;;;;;;;10.77;5.77;;;7.00;99.90;;;;;;5038048;28;20167;-78
2022/09/23 04:11:38;;;;;;;5.77;4.37;;;7.00;99.90;;;;;;5040422;28;20192;-78
2022/09/23 04:14:04;;;;;;;5.27;4.30;;;7.00;99.90;;;;;;5039549;28;20168;-79
2022/09/23 04:16:30;;;;;;;6.03;4.90;;;7.00;99.90;;;;;;5039006;28;20182;-79
2022/09/23 04:18:55;;;;;;;4.23;3.80;;;7.00;99.90;;;;;;5026674;28;20438;-78
2022/09/23 04:21:21;;;;;;;6.60;4.50;;;7.00;99.90;;;;;;5027969;28;20211;-79
2022/09/23 04:23:46;;;;;;;4.90;4.40;;;7.00;99.90;;;;;;5048576;28;20164;-79
2022/09/23 04:26:12;;;;;;;5.40;4.57;;;6.90;99.90;;;;;;5036022;28;20199;-79
2022/09/23 04:28:38;;;;;;;10.83;4.53;;;6.90;99.90;;;;;;5036907;28;20587;-79
2022/09/23 04:31:06;;;;;;;6.40;4.23;;;6.90;99.90;;;;;;5037025;28;20422;-79
2022/09/23 04:33:31;;;;;;;7.70;4.90;;;6.90;99.90;;;;;;5035698;28;20197;-79
2022/09/23 04:35:57;;;;;;;6.20;4.50;;;6.90;99.90;;;;;;5035332;28;20489;-79
2022/09/23 04:38:22;;;;;;;7.97;4.23;;;6.90;99.90;;;;;;5018680;28;20234;-79
2022/09/23 04:40:48;;;;;;;7.00;4.90;;;6.90;99.90;;;;;;5036203;28;20630;-79
2022/09/23 04:43:15;;;;;;;6.60;4.60;;;6.90;99.90;;;;;;5037717;28;20603;-79
2022/09/23 04:45:42;;;;;;;7.23;5.20;;;6.80;99.90;;;;;;5036173;28;20191;-79
2022/09/23 04:48:09;;;;;;;5.57;4.80;;;6.90;99.90;;;;;;5036232;28;20405;-79
2022/09/23 04:50:35;;;;;;;5.33;3.87;;;6.80;99.90;;;;;;5045525;28;20543;-80
2022/09/23 04:53:01;;;;;;;6.33;4.20;;;6.90;99.90;;;;;;5049342;28;20437;-80
2022/09/23 04:55:27;;;;;;;9.67;4.67;;;6.90;99.90;;;;;;5051818;28;20418;-80
2022/09/23 04:57:53;;;;;;;5.33;4.83;;;6.90;99.90;;;;;;5049811;28;20187;-79
2022/09/23 05:00:19;;;;;;;7.20;4.20;;;6.90;99.90;;;;;;5049532;28;20417;-79
2022/09/23 05:02:45;;;;;;;6.37;4.77;;;6.90;99.90;;;;;;5050420;28;20447;-79
2022/09/23 05:05:12;;;;;;;6.23;4.00;;;6.90;99.90;;;;;;5045177;28;20222;-80
2022/09/23 05:07:38;;;;;;;4.53;3.70;;;6.90;99.90;;;;;;5043832;28;20460;-79
2022/09/23 05:10:04;;;;;;;5.13;4.10;;;6.90;99.90;;;;;;5025406;28;20418;-79
2022/09/23 05:12:29;;;;;;;7.57;4.80;;;6.90;99.90;;;;;;5025393;28;20438;-79
2022/09/23 05:14:55;;;;;;;5.80;5.17;;;6.90;99.90;;;;;;5039473;28;20419;-79
2022/09/23 05:17:20;;;;;;;6.40;4.20;;;6.90;99.90;;;;;;5034042;28;20662;-78
2022/09/23 05:19:46;;;;;;;5.50;4.57;;;6.90;99.90;;;;;;5034466;28;20171;-79
2022/09/23 05:22:12;;;;;;;4.40;4.00;;;7.00;99.90;;;;;;5033247;28;20600;-79
2022/09/23 05:24:37;;;;;;;5.80;4.87;;;7.00;99.90;;;;;;5034253;28;20250;-79
2022/09/23 05:27:06;;;;;;;8.63;5.33;;;7.00;99.90;;;;;;5016408;28;20172;-79
2022/09/23 05:29:32;;;;;;;5.10;4.20;;;7.00;99.90;;;;;;5036125;28;20213;-78
2022/09/23 05:31:58;;;;;;;9.53;5.20;;;7.10;99.90;;;;;;5023700;28;20435;-79
2022/09/23 05:34:23;;;;;;;6.17;5.57;;;7.10;99.90;;;;;;5014832;28;20498;-79
2022/09/23 05:36:49;;;;;;;6.90;5.03;;;7.20;99.90;;;;;;5018956;28;20199;-78
2022/09/23 05:39:15;;;;;;;7.23;4.70;;;7.20;99.90;;;;;;5015372;28;20176;-78
2022/09/23 05:41:41;;;;;;;4.50;4.10;;;7.30;99.90;;;;;;4999398;28;20462;-80
2022/09/23 05:44:07;;;;;;;4.63;4.23;;;7.40;99.90;;;;;;5016940;28;20222;-79
2022/09/23 05:46:33;;;;;;;6.30;4.10;;;7.40;99.90;;;;;;5022730;28;20493;-79
2022/09/23 05:49:00;;;;;;;5.87;4.13;;;7.50;99.90;;;;;;5006296;28;20487;-80
2022/09/23 05:51:26;;;;;;;4.90;4.33;;;7.60;99.90;;;;;;5016821;28;20439;-78
2022/09/23 05:53:53;;;;;;;9.67;4.63;;;7.90;99.90;;;;;;5015719;28;20413;-79
2022/09/23 05:56:21;;;;;;;4.97;4.47;;;8.50;99.90;;;;;;5016412;28;20407;-78
2022/09/23 05:58:52;;;;;;;4.23;3.83;;;9.00;99.90;;;;;;5035984;28;20450;-79
2022/09/23 06:01:20;;;;;;;3.47;3.17;;;9.90;99.90;;;;;;5038068;28;20490;-80
2022/09/23 06:03:49;;;;;;;6.00;3.20;;;11.00;99.90;;;;;;5055523;28;20489;-81
2022/09/23 06:06:16;;;;;;;3.70;3.20;;;11.60;99.90;;;;;;5053431;28;20413;-79
2022/09/23 06:08:43;;;;;;;4.77;3.67;;;10.80;99.90;;;;;;5039112;28;20417;-79
2022/09/23 06:11:11;;;;;;;4.33;3.57;;;10.90;99.90;;;;;;5055477;28;20886;-78
2022/09/23 06:13:37;;;;;;;5.60;3.70;;;11.00;99.90;;;;;;5056976;28;20405;-80
2022/09/23 06:16:11;;;;;;;3.90;3.57;;;11.60;99.90;;;;;;5051252;28;20414;-80
2022/09/23 06:18:39;;;;;;;4.90;4.37;;;12.10;99.90;;;;;;5047521;28;20459;-80
2022/09/23 06:21:05;;;;;;;5.93;3.43;;;13.00;99.90;;;;;;5028797;28;20524;-81
2022/09/23 06:23:30;;;;;;;3.80;3.30;;;13.10;99.90;;;;;;5041804;28;20464;-78
2022/09/23 06:26:01;;;;;;;3.90;3.00;;;13.10;99.90;;;;;;5033328;28;20417;-79
2022/09/23 06:28:34;;;;;;;6.77;4.40;;;13.20;99.90;;;;;;5028908;28;20181;-80
2022/09/23 06:31:04;;;;;;;3.30;3.03;;;13.40;99.90;;;;;;5052466;28;20492;-80
2022/09/23 06:33:30;;;;;;;4.00;3.60;;;14.00;99.90;;;;;;5050941;28;20421;-80
2022/09/23 06:35:57;;;;;;;5.70;3.37;;;14.00;99.90;;;;;;5051921;28;20436;-80
2022/09/23 06:38:23;;;;;;;6.27;3.60;;;13.60;99.90;;;;;;5034946;28;20451;-80
2022/09/23 06:40:53;;;;;;;4.03;3.63;;;13.90;99.90;;;;;;5035206;28;20408;-81
2022/09/23 06:43:21;;;;;;;3.63;2.60;;;14.60;99.90;;;;;;5046144;28;20448;-79
2022/09/23 06:45:46;;;;;;;4.77;3.37;;;14.10;99.90;;;;;;5051794;28;20504;-80
2022/09/23 06:48:12;;;;;;;7.80;3.93;;;14.40;99.90;;;;;;5052995;28;20418;-80
2022/09/23 06:50:38;;;;;;;5.60;3.27;;;15.00;99.90;;;;;;5053967;28;20164;-80
2022/09/23 06:53:04;;;;;;;4.20;3.70;;;14.90;99.90;;;;;;5049338;28;20273;-80
2022/09/23 06:55:29;;;;;;;3.90;3.60;;;13.90;99.90;;;;;;5047344;28;20424;-80
2022/09/23 06:57:57;;;;;;;3.57;3.27;;;13.80;99.90;;;;;;5051056;28;20188;-80
2022/09/23 07:00:23;;;;;;;3.23;2.93;;;14.10;99.90;;;;;;5051568;28;20204;-80
2022/09/23 07:02:49;;;;;;;3.90;3.50;;;14.90;99.90;;;;;;5052063;28;20478;-80
2022/09/23 07:05:16;;;;;;;5.00;3.30;;;15.10;99.90;;;;;;5051920;28;20411;-80
2022/09/23 07:07:42;;;;;;;4.37;3.10;;;15.10;99.90;;;;;;5052575;28;20167;-80
2022/09/23 07:10:08;;;;;;;3.40;3.00;;;15.50;99.90;;;;;;5052875;28;20432;-80
2022/09/23 07:12:34;;;;;;;5.77;2.80;;;15.50;99.90;;;;;;5052349;28;20446;-80
2022/09/23 07:15:00;;;;;;;5.40;3.10;;;15.40;99.90;;;;;;5054587;28;20398;-81
2022/09/23 07:17:25;;;;;;;2.70;2.50;;;15.10;99.90;;;;;;5039045;28;20244;-80
2022/09/23 07:19:53;;;;;;;6.30;2.63;;;15.40;99.90;;;;;;5055978;28;20508;-80
2022/09/23 07:22:20;;;;;;;3.10;2.90;;;15.50;99.90;;;;;;5055283;28;20205;-80
2022/09/23 07:24:45;;;;;;;3.73;3.10;;;15.50;99.90;;;;;;5051037;28;20426;-80
2022/09/23 07:27:18;;;;;;;4.27;2.70;;;15.70;99.90;;;;;;5033487;28;20442;-80
2022/09/23 07:29:48;;;;;;;4.27;2.90;;;16.80;99.90;;;;;;5028603;28;20179;-79
2022/09/23 07:32:13;;;;;;;6.53;3.20;;;16.50;99.90;;;;;;5040054;28;20571;-79
2022/09/23 07:34:39;;;;;;;3.80;2.23;;;16.90;99.90;;;;;;5045470;28;20404;-79
2022/09/23 07:37:04;;;;;;;3.77;3.10;;;16.70;99.90;;;;;;5045067;28;20262;-79
2022/09/23 07:39:30;;;;;;;3.37;2.90;;;16.80;99.90;;;;;;5047164;28;20174;-80
2022/09/23 07:41:56;;;;;;;4.23;2.93;;;17.50;99.90;;;;;;5051497;28;20228;-80
2022/09/23 07:44:21;;;;;;;4.53;2.63;;;18.00;99.90;;;;;;5054654;28;20171;-80
2022/09/23 07:46:50;;;;;;;3.10;2.80;;;17.90;99.90;;;;;;5055634;28;20175;-80
2022/09/23 07:49:16;;;;;;;3.50;2.50;;;17.00;99.90;;;;;;5054875;28;20170;-80
2022/09/23 07:51:45;;;;;;;3.20;2.50;;;16.50;99.90;;;;;;5053191;28;20432;-80
2022/09/23 07:54:13;;;;;;;3.10;2.70;;;16.30;99.90;;;;;;5043722;28;20181;-80
2022/09/23 07:56:39;;;;;;;3.23;2.93;;;16.90;99.90;;;;;;5045062;28;20772;-79
2022/09/23 07:59:07;;;;;;;4.87;2.60;;;17.90;99.90;;;;;;5046831;28;20463;-80
2022/09/23 08:01:38;;;;;;;3.67;2.93;;;17.10;99.90;;;;;;5057035;28;20437;-80
2022/09/23 08:04:11;;;;;;;3.27;3.03;;;17.40;99.90;;;;;;5036947;28;20419;-77
2022/09/23 08:06:41;;;;;;;5.80;3.67;;;17.70;99.90;;;;;;5039679;28;20527;-75
2022/09/23 08:09:06;;;;;;;4.70;3.00;;;17.50;99.90;;;;;;5050853;28;20402;-79
2022/09/23 08:11:32;;;;;;;4.27;3.87;;;16.80;99.90;;;;;;5041069;28;20986;-79
2022/09/23 08:13:57;;;;;;;3.77;3.47;;;16.40;99.90;;;;;;5048087;28;20178;-79
2022/09/23 08:16:23;;;;;;;4.10;3.80;;;16.40;99.90;;;;;;5052000;28;20166;-79
2022/09/23 08:18:49;;;;;;;4.20;3.50;;;16.80;99.90;;;;;;5042412;28;20241;-78
2022/09/23 08:21:19;;;;;;;5.07;3.93;;;18.00;99.90;;;;;;5050976;28;20260;-78
2022/09/23 08:23:45;;;;;;;4.83;3.53;;;17.80;99.90;;;;;;5028455;28;20416;-78
2022/09/23 08:26:11;;;;;;;5.20;3.60;;;17.60;99.90;;;;;;5044744;28;20489;-78
2022/09/23 08:28:37;;;;;;;5.37;3.80;;;17.50;99.90;;;;;;5044886;28;20431;-78
2022/09/23 08:31:03;;;;;;;7.07;3.20;;;18.70;99.90;;;;;;5028548;28;20195;-78
2022/09/23 08:33:29;;;;;;;4.13;3.80;;;18.40;99.90;;;;;;5036708;28;20172;-79
2022/09/23 08:35:59;;;;;;;6.30;3.67;;;18.20;99.90;;;;;;5038191;28;20182;-78
2022/09/23 08:38:25;;;;;;;5.53;3.73;;;17.30;99.90;;;;;;5055690;28;20394;-78
2022/09/23 08:40:54;;;;;;;6.33;3.97;;;17.80;99.90;;;;;;5055232;28;20497;-78
2022/09/23 08:43:28;;;;;;;6.20;3.67;;;17.70;99.90;;;;;;5054289;28;20501;-78
2022/09/23 08:45:59;;;;;;;4.17;3.77;;;18.60;99.90;;;;;;5054910;28;20447;-78
2022/09/23 08:48:28;;;;;;;6.00;3.33;;;18.90;99.90;;;;;;5036523;28;20406;-78
2022/09/23 08:51:03;;;;;;;3.90;3.60;;;19.40;99.90;;;;;;5048505;28;20404;-78
2022/09/23 08:53:33;;;;;;;3.10;2.90;;;17.50;99.90;;;;;;5045155;28;20417;-78
2022/09/23 08:56:13;;;;;;;3.47;3.10;;;18.40;99.90;;;;;;5047301;28;20413;-78
2022/09/23 08:59:02;;;;;;;2.90;2.60;;;18.50;99.90;;;;;;5046924;28;20409;-78
2022/09/23 09:01:43;;;;;;;8.60;4.13;;;18.70;99.90;;;;;;5045584;28;20441;-78
2022/09/23 09:04:34;;;;;;;3.40;3.10;;;18.70;99.90;;;;;;5046517;28;20417;-78
2022/09/23 09:07:06;;;;;;;3.20;2.90;;;19.00;99.90;;;;;;5049789;28;20484;-79
2022/09/23 09:09:47;;;;;;;2.70;2.50;;;18.90;99.90;;;;;;5034169;28;20432;-79
2022/09/23 09:12:21;;;;;;;7.17;2.90;;;18.60;99.90;;;;;;5055890;28;20432;-79
2022/09/23 09:15:01;;;;;;;4.17;2.63;;;18.20;99.90;;;;;;5055538;28;20421;-79
2022/09/23 09:17:27;;;;;;;7.20;2.10;;;17.60;99.90;;;;;;5055512;28;20441;-79
2022/09/23 09:20:06;;;;;;;1.77;1.50;;;16.90;99.90;;;;;;5053507;28;20410;-79
2022/09/23 09:22:33;;;;;;;3.70;2.17;;;17.90;99.90;;;;;;5041019;28;20271;-77
2022/09/23 09:25:10;;;;;;;2.87;2.20;;;18.00;99.90;;;;;;5032223;28;20828;-77
2022/09/23 09:27:39;;;;;;;2.00;1.90;;;18.60;99.90;;;;;;5020152;28;20478;-79
2022/09/23 09:30:13;;;;;;;3.03;2.63;;;17.60;99.90;;;;;;5015475;28;20496;-79
2022/09/23 09:32:55;;;;;;;5.20;2.40;;;17.30;99.90;;;;;;5029096;28;20433;-78
2022/09/23 09:35:27;;;;;;;2.43;2.23;;;17.70;99.90;;;;;;5022789;28;20900;-78
2022/09/23 09:37:53;;;;;;;2.97;2.20;;;17.30;99.90;;;;;;5022355;28;20938;-78
2022/09/23 09:40:19;;;;;;;7.07;2.83;;;17.70;99.90;;;;;;5016054;28;20408;-77
2022/09/23 09:42:49;;;;;;;2.53;2.10;;;18.30;99.90;;;;;;5017413;28;20206;-78
2022/09/23 09:45:52;;;;;;;2.17;2.07;;;18.20;99.90;;;;;;5020848;28;20186;-78
2022/09/23 09:48:27;;;;;;;2.90;2.60;;;17.50;99.90;;;;;;5000545;28;20511;-77
2022/09/23 09:50:54;;;;;;;2.10;1.70;;;17.80;99.90;;;;;;5015642;28;20870;-78
2022/09/23 09:53:24;;;;;;;4.70;1.80;;;17.80;99.90;;;;;;5015360;28;20998;-78
2022/09/23 09:56:02;;;;;;;2.93;2.20;;;17.40;99.90;;;;;;5015619;28;20829;-78
2022/09/23 09:58:36;;;;;;;2.20;2.00;;;17.40;99.90;;;;;;4998587;28;20427;-78
2022/09/23 10:01:02;;;;;;;2.40;2.20;;;17.30;99.90;;;;;;5015454;28;20523;-78
2022/09/23 10:03:40;;;;;;;2.20;1.80;;;17.20;99.90;;;;;;5013451;28;20508;-79
2022/09/23 10:06:23;;;;;;;2.07;1.90;;;16.80;99.90;;;;;;5014187;28;20264;-78
2022/09/23 10:09:01;;;;;;;2.27;2.07;;;16.60;99.90;;;;;;5030897;28;20428;-79
2022/09/23 10:11:27;;;;;;;3.33;1.60;;;16.70;99.90;;;;;;5041266;28;20466;-79
2022/09/23 10:14:02;;;;;;;1.83;1.73;;;16.70;99.90;;;;;;5032000;28;20512;-77
2022/09/23 10:16:33;;;;;;;3.17;1.70;;;16.90;99.90;;;;;;5013123;28;20743;-76
2022/09/23 10:19:01;;;;;;;1.40;1.30;;;16.80;99.90;;;;;;5013261;28;20775;-77
2022/09/23 10:21:34;;;;;;;1.40;1.30;;;16.80;99.90;;;;;;4979372;28;21061;-77
2022/09/23 10:24:04;;;;;;;3.63;2.00;;;16.90;99.90;;;;;;5013284;28;20901;-77
2022/09/23 10:26:50;;;;;;;2.20;1.80;;;16.90;99.90;;;;;;5029576;28;20425;-77
2022/09/23 10:29:23;;;;;;;2.10;1.77;;;17.00;99.90;;;;;;5033042;28;20787;-77
2022/09/23 10:31:52;;;;;;;1.33;1.23;;;16.80;99.90;;;;;;5016070;28;20538;-78
2022/09/23 10:34:27;;;;;;;1.43;1.30;;;16.70;99.90;;;;;;5034607;28;20453;-77
2022/09/23 10:37:13;;;;;;;2.37;2.20;;;16.60;99.90;;;;;;5033023;28;20441;-78
2022/09/23 10:48:27;;;;;;;1.50;1.20;;;16.80;99.90;;;;;;5051617;28;20419;-72
2022/09/23 10:50:55;;;;;;;1.30;1.17;;;16.90;99.50;;;;;;5053951;28;20446;-72
2022/09/23 10:53:29;;;;;;;1.40;1.30;;;16.90;99.50;;;;;;5055115;28;20486;-72
2022/09/23 10:56:14;;;;;;;1.63;1.20;;;17.10;97.80;;;;;;5055841;28;20510;-72
2022/09/23 10:59:32;;;;;;;1.57;1.47;;;17.20;98.00;;;;;;5075170;28;20836;-72
2022/09/23 11:02:09;;;;;;;1.97;1.50;;;17.10;97.70;;;;;;5053044;28;20517;-72
2022/09/23 11:05:06;;;;;;;1.50;1.10;;;17.10;97.60;;;;;;5074873;28;20466;-72
2022/09/23 11:07:59;;;;;;;1.13;1.00;;;17.10;98.60;;;;;;5075031;28;20441;-72
2022/09/23 11:10:41;;;;;;;1.73;1.20;;;16.80;98.70;;;;;;5075010;28;20415;-72
2022/09/23 11:13:51;;;;;;;1.73;1.17;;;16.80;98.10;;;;;;5075194;28;20394;-72
2022/09/23 11:16:41;;;;;;;1.90;1.30;;;17.10;96.00;;;;;;5025224;28;20427;-72
2022/09/23 11:19:21;;;;;;;1.50;1.33;;;16.90;97.90;;;;;;5075116;28;20405;-72
2022/09/23 11:22:09;;;;;;;1.87;1.70;;;16.90;98.60;;;;;;5074761;28;20443;-72
2022/09/23 11:24:59;;;;;;;2.43;1.60;;;17.30;97.90;;;;;;5056278;28;20774;-72
2022/09/23 11:27:39;;;;;;;1.47;1.37;;;17.40;97.30;;;;;;5056536;28;20473;-72
2022/09/23 11:30:15;;;;;;;2.00;1.90;;;17.50;97.40;;;;;;5074689;28;20430;-72
2022/09/23 11:33:05;;;;;;;3.07;1.60;;;17.40;97.00;;;;;;5057662;28;20472;-71
2022/09/23 11:35:40;;;;;;;1.70;1.60;;;17.00;97.90;;;;;;5054174;28;20435;-72
2022/09/23 11:38:17;;;;;;;2.27;1.60;;;17.00;98.30;;;;;;5054596;28;20406;-71
2022/09/23 11:40:45;;;;;;;2.73;1.40;;;17.40;97.50;;;;;;5054513;28;20409;-72
2022/09/23 11:43:23;;;;;;;2.03;1.70;;;17.30;97.20;;;;;;5054451;28;20821;-72
2022/09/23 11:46:08;;;;;;;1.83;1.73;;;17.50;96.80;;;;;;5049479;28;20519;-72
2022/09/23 11:48:43;;;;;;;3.10;1.50;;;17.30;97.40;;;;;;5036248;28;20911;-71
2022/09/23 11:51:14;;;;;;;2.03;1.87;;;17.20;97.60;;;;;;5036240;28;20407;-71
2022/09/23 11:53:46;;;;;;;3.13;1.93;;;17.20;98.10;;;;;;5054225;28;20511;-71
2022/09/23 11:56:27;;;;;;;1.80;1.50;;;17.40;98.00;;;;;;5054433;28;20396;-71
2022/09/23 11:59:12;;;;;;;1.83;1.57;;;17.50;97.10;;;;;;5054200;28;20421;-71
2022/09/23 12:01:45;;;;;;;2.23;1.30;;;17.30;98.20;;;;;;5053323;28;20460;-71
2022/09/23 12:04:48;;;;;;;1.40;1.30;;;17.20;98.40;;;;;;5054010;28;20427;-71
2022/09/23 12:07:27;;;;;;;3.60;1.93;;;17.20;97.80;;;;;;5009728;28;20417;-71
2022/09/23 12:10:05;;;;;;;1.33;1.10;;;17.40;97.60;;;;;;5054185;28;20405;-73
2022/09/23 12:12:48;;;;;;;1.50;1.30;;;17.50;96.90;;;;;;5054128;28;20830;-71
2022/09/23 12:15:38;;;;;;;1.47;1.37;;;17.40;96.40;;;;;;5060594;28;20425;-72
2022/09/23 12:18:34;;;;;;;1.80;1.60;;;17.40;97.30;;;;;;5074185;28;20393;-71
2022/09/23 12:21:15;;;;;;;1.10;1.00;;;17.40;97.30;;;;;;5073754;28;20909;-72
2022/09/23 12:24:14;;;;;;;2.47;1.67;;;17.60;95.80;;;;;;5073523;28;20546;-71
2022/09/23 12:26:40;;;;;;;2.07;1.67;;;17.80;94.70;;;;;;5041318;28;20425;-71
2022/09/23 12:29:11;;;;;;;1.80;1.33;;;17.70;95.10;;;;;;5053520;28;20401;-72
2022/09/23 12:31:38;;;;;;;2.77;1.60;;;17.00;96.10;;;;;;5040209;28;20826;-72
2022/09/23 12:34:20;;;;;;;1.80;1.70;;;17.20;95.80;;;;;;5052156;28;20787;-72
2022/09/23 12:36:46;;;;;;;1.57;1.40;;;17.30;96.00;;;;;;5053243;28;20408;-72
2022/09/23 12:39:30;;;;;;;2.07;1.63;;;17.50;95.90;;;;;;5053147;28;20409;-72
2022/09/23 12:41:59;;;;;;;1.43;1.33;;;17.70;95.40;;;;;;5035215;28;20456;-71
2022/09/23 12:44:40;;;;;;;2.20;1.30;;;17.80;96.00;;;;;;5055040;28;20468;-72
2022/09/23 12:47:24;;;;;;;1.67;1.27;;;17.90;96.40;;;;;;5073173;28;20487;-71
2022/09/23 12:49:51;;;;;;;1.67;1.47;;;17.90;95.80;;;;;;5055341;28;20402;-72
2022/09/23 12:52:16;;;;;;;1.80;1.50;;;17.90;95.90;;;;;;5072878;28;20490;-71
2022/09/23 12:54:47;;;;;;;1.20;1.10;;;17.70;97.10;;;;;;5072807;28;20557;-72
2022/09/23 12:57:33;;;;;;;2.40;1.73;;;17.50;96.70;;;;;;5072853;28;20190;-72
2022/09/23 13:00:11;;;;;;;2.43;1.60;;;17.70;95.70;;;;;;5072558;28;20412;-72
2022/09/23 13:02:46;;;;;;;3.27;1.67;;;17.80;96.10;;;;;;5073374;28;20979;-71
2022/09/23 13:08:16;;;;;;;1.53;1.20;;;17.60;97.10;;;;;;5072591;28;20426;-71
2022/09/23 13:10:48;;;;;;;1.30;1.20;;;17.50;95.60;;;;;;5072503;28;20435;-71
2022/09/23 13:13:26;;;;;;;2.83;1.30;;;17.60;94.80;;;;;;5072645;28;20413;-71
2022/09/23 13:15:53;;;;;;;1.40;1.30;;;17.60;95.00;;;;;;5054188;28;20435;-71
2022/09/23 13:18:19;;;;;;;1.73;1.50;;;17.60;95.30;;;;;;5072430;28;20410;-71
2022/09/23 13:20:52;;;;;;;2.50;1.90;;;17.50;95.10;;;;;;5072371;28;20771;-72
2022/09/23 13:23:30;;;;;;;2.17;1.97;;;17.60;94.70;;;;;;5072006;28;20271;-73
2022/09/23 13:26:07;;;;;;;1.20;1.10;;;17.50;94.20;;;;;;5072066;28;20502;-72
2022/09/23 13:28:43;;;;;;;2.13;1.17;;;17.50;94.30;;;;;;5072500;28;20495;-71
2022/09/23 13:31:14;;;;;;;1.40;1.20;;;17.40;94.20;;;;;;5072133;28;20909;-73